sensor_id;sensor_type;location;lat;lon;timestamp;P1;durP1;ratioP1;P2;durP2;ratioP2
41653;SDS011;68687;52.030;7.110;2023-09-19T00:01:45;16.50;;;6.68;;
41653;SDS011;68687;52.030;7.110;2023-09-19T00:04:10;13.43;;;6.25;;
41653;SDS011;68687;52.030;7.110;2023-09-19T00:06:37;13.80;;;6.68;;
41653;SDS011;68687;52.030;7.110;2023-09-19T00:09:03;20.85;;;8.20;;
41653;SDS011;68687;52.030;7.110;2023-09-19T00:11:32;22.65;;;6.97;;
41653;SDS011;68687;52.030;7.110;2023-09-19T00:13:57;15.88;;;7.47;;
41653;SDS011;68687;52.030;7.110;2023-09-19T00:16:28;16.80;;;6.57;;
41653;SDS011;68687;52.030;7.110;2023-09-19T00:18:57;18.95;;;7.28;;
41653;SDS011;68687;52.030;7.110;2023-09-19T00:21:23;18.10;;;7.30;;
41653;SDS011;68687;52.030;7.110;2023-09-19T00:23:51;14.07;;;6.38;;
41653;SDS011;68687;52.030;7.110;2023-09-19T00:26:16;21.90;;;7.25;;
41653;SDS011;68687;52.030;7.110;2023-09-19T00:28:43;25.98;;;7.97;;
41653;SDS011;68687;52.030;7.110;2023-09-19T00:31:08;22.73;;;7.40;;
41653;SDS011;68687;52.030;7.110;2023-09-19T00:33:34;21.55;;;7.80;;
41653;SDS011;68687;52.030;7.110;2023-09-19T00:35:59;24.88;;;7.22;;
41653;SDS011;68687;52.030;7.110;2023-09-19T00:38:29;17.63;;;7.10;;
41653;SDS011;68687;52.030;7.110;2023-09-19T00:40:54;18.35;;;6.90;;
41653;SDS011;68687;52.030;7.110;2023-09-19T00:43:22;15.07;;;6.30;;
41653;SDS011;68687;52.030;7.110;2023-09-19T00:45:49;24.10;;;7.53;;
41653;SDS011;68687;52.030;7.110;2023-09-19T00:48:18;15.38;;;7.40;;
41653;SDS011;68687;52.030;7.110;2023-09-19T00:50:45;25.77;;;7.55;;
41653;SDS011;68687;52.030;7.110;2023-09-19T00:53:14;23.02;;;6.50;;
41653;SDS011;68687;52.030;7.110;2023-09-19T00:55:49;21.60;;;6.95;;
41653;SDS011;68687;52.030;7.110;2023-09-19T00:58:16;21.23;;;6.55;;
41653;SDS011;68687;52.030;7.110;2023-09-19T01:00:42;16.75;;;6.50;;
41653;SDS011;68687;52.030;7.110;2023-09-19T01:03:09;20.90;;;7.45;;
41653;SDS011;68687;52.030;7.110;2023-09-19T01:05:35;18.55;;;6.57;;
41653;SDS011;68687;52.030;7.110;2023-09-19T01:08:01;19.00;;;6.82;;
41653;SDS011;68687;52.030;7.110;2023-09-19T01:10:26;20.60;;;6.75;;
41653;SDS011;68687;52.030;7.110;2023-09-19T01:18:38;30.77;;;8.50;;
41653;SDS011;68687;52.030;7.110;2023-09-19T01:21:08;15.93;;;6.30;;
41653;SDS011;68687;52.030;7.110;2023-09-19T01:26:45;31.35;;;8.48;;
41653;SDS011;68687;52.030;7.110;2023-09-19T01:32:01;20.38;;;6.45;;
41653;SDS011;68687;52.030;7.110;2023-09-19T01:34:48;21.55;;;7.13;;
41653;SDS011;68687;52.030;7.110;2023-09-19T01:37:29;17.27;;;6.03;;
41653;SDS011;68687;52.030;7.110;2023-09-19T01:40:09;11.13;;;6.05;;
41653;SDS011;68687;52.030;7.110;2023-09-19T01:43:17;12.43;;;6.20;;
41653;SDS011;68687;52.030;7.110;2023-09-19T01:51:52;19.83;;;7.35;;
41653;SDS011;68687;52.030;7.110;2023-09-19T01:54:30;21.33;;;8.02;;
41653;SDS011;68687;52.030;7.110;2023-09-19T01:57:03;21.00;;;6.93;;
41653;SDS011;68687;52.030;7.110;2023-09-19T01:59:40;17.95;;;7.32;;
41653;SDS011;68687;52.030;7.110;2023-09-19T02:02:10;21.73;;;7.18;;
41653;SDS011;68687;52.030;7.110;2023-09-19T02:04:37;20.63;;;7.72;;
41653;SDS011;68687;52.030;7.110;2023-09-19T02:07:02;15.93;;;7.03;;
41653;SDS011;68687;52.030;7.110;2023-09-19T02:09:30;21.42;;;7.22;;
41653;SDS011;68687;52.030;7.110;2023-09-19T02:11:59;24.25;;;8.93;;
41653;SDS011;68687;52.030;7.110;2023-09-19T02:14:28;17.38;;;7.57;;
41653;SDS011;68687;52.030;7.110;2023-09-19T02:16:54;19.80;;;7.20;;
41653;SDS011;68687;52.030;7.110;2023-09-19T02:19:20;19.00;;;7.28;;
41653;SDS011;68687;52.030;7.110;2023-09-19T02:21:45;15.85;;;7.60;;
41653;SDS011;68687;52.030;7.110;2023-09-19T02:24:11;19.10;;;6.93;;
41653;SDS011;68687;52.030;7.110;2023-09-19T02:26:37;28.73;;;6.72;;
41653;SDS011;68687;52.030;7.110;2023-09-19T02:29:02;23.42;;;7.28;;
41653;SDS011;68687;52.030;7.110;2023-09-19T02:31:29;24.50;;;7.30;;
41653;SDS011;68687;52.030;7.110;2023-09-19T02:33:55;21.38;;;7.47;;
41653;SDS011;68687;52.030;7.110;2023-09-19T02:36:24;16.20;;;7.10;;
41653;SDS011;68687;52.030;7.110;2023-09-19T02:38:55;19.40;;;7.05;;
41653;SDS011;68687;52.030;7.110;2023-09-19T02:41:21;22.65;;;7.82;;
41653;SDS011;68687;52.030;7.110;2023-09-19T02:43:46;22.85;;;7.50;;
41653;SDS011;68687;52.030;7.110;2023-09-19T02:46:12;21.40;;;7.95;;
41653;SDS011;68687;52.030;7.110;2023-09-19T02:48:37;28.48;;;7.25;;
41653;SDS011;68687;52.030;7.110;2023-09-19T02:51:03;17.90;;;7.90;;
41653;SDS011;68687;52.030;7.110;2023-09-19T02:53:28;20.05;;;7.65;;
41653;SDS011;68687;52.030;7.110;2023-09-19T02:55:56;18.65;;;7.13;;
41653;SDS011;68687;52.030;7.110;2023-09-19T02:58:21;23.92;;;8.02;;
41653;SDS011;68687;52.030;7.110;2023-09-19T03:00:50;20.95;;;7.50;;
41653;SDS011;68687;52.030;7.110;2023-09-19T03:03:16;19.55;;;7.45;;
41653;SDS011;68687;52.030;7.110;2023-09-19T03:05:44;22.98;;;8.10;;
41653;SDS011;68687;52.030;7.110;2023-09-19T03:08:13;15.68;;;7.20;;
41653;SDS011;68687;52.030;7.110;2023-09-19T03:10:40;26.13;;;7.38;;
41653;SDS011;68687;52.030;7.110;2023-09-19T03:13:05;24.42;;;7.82;;
41653;SDS011;68687;52.030;7.110;2023-09-19T03:15:34;15.02;;;6.63;;
41653;SDS011;68687;52.030;7.110;2023-09-19T03:18:02;23.73;;;7.30;;
41653;SDS011;68687;52.030;7.110;2023-09-19T03:20:27;19.45;;;6.43;;
41653;SDS011;68687;52.030;7.110;2023-09-19T03:22:53;18.73;;;6.93;;
41653;SDS011;68687;52.030;7.110;2023-09-19T03:25:18;22.15;;;8.15;;
41653;SDS011;68687;52.030;7.110;2023-09-19T03:27:47;17.17;;;7.00;;
41653;SDS011;68687;52.030;7.110;2023-09-19T03:30:15;24.80;;;7.80;;
41653;SDS011;68687;52.030;7.110;2023-09-19T03:32:45;18.80;;;8.15;;
41653;SDS011;68687;52.030;7.110;2023-09-19T03:35:12;21.35;;;7.03;;
41653;SDS011;68687;52.030;7.110;2023-09-19T03:37:39;20.83;;;8.00;;
41653;SDS011;68687;52.030;7.110;2023-09-19T03:40:05;24.52;;;9.45;;
41653;SDS011;68687;52.030;7.110;2023-09-19T03:42:32;21.02;;;7.95;;
41653;SDS011;68687;52.030;7.110;2023-09-19T03:45:00;22.38;;;7.97;;
41653;SDS011;68687;52.030;7.110;2023-09-19T03:47:29;21.27;;;8.55;;
41653;SDS011;68687;52.030;7.110;2023-09-19T03:50:00;12.95;;;7.78;;
41653;SDS011;68687;52.030;7.110;2023-09-19T03:52:25;22.40;;;7.60;;
41653;SDS011;68687;52.030;7.110;2023-09-19T03:54:51;12.75;;;8.65;;
41653;SDS011;68687;52.030;7.110;2023-09-19T03:57:20;22.45;;;7.97;;
41653;SDS011;68687;52.030;7.110;2023-09-19T03:59:46;17.10;;;7.82;;
41653;SDS011;68687;52.030;7.110;2023-09-19T04:02:12;21.92;;;8.10;;
41653;SDS011;68687;52.030;7.110;2023-09-19T04:04:47;20.60;;;7.90;;
41653;SDS011;68687;52.030;7.110;2023-09-19T04:07:15;21.02;;;8.23;;
41653;SDS011;68687;52.030;7.110;2023-09-19T04:09:40;14.23;;;7.30;;
41653;SDS011;68687;52.030;7.110;2023-09-19T04:12:06;22.27;;;7.57;;
41653;SDS011;68687;52.030;7.110;2023-09-19T04:14:33;28.60;;;8.40;;
41653;SDS011;68687;52.030;7.110;2023-09-19T04:16:59;22.98;;;7.47;;
41653;SDS011;68687;52.030;7.110;2023-09-19T04:19:25;25.10;;;7.72;;
41653;SDS011;68687;52.030;7.110;2023-09-19T04:21:50;31.98;;;8.57;;
41653;SDS011;68687;52.030;7.110;2023-09-19T04:24:15;17.13;;;6.85;;
41653;SDS011;68687;52.030;7.110;2023-09-19T04:26:41;17.73;;;7.38;;
41653;SDS011;68687;52.030;7.110;2023-09-19T04:29:07;22.73;;;7.88;;
41653;SDS011;68687;52.030;7.110;2023-09-19T04:31:42;24.45;;;8.55;;
41653;SDS011;68687;52.030;7.110;2023-09-19T04:34:09;30.00;;;8.63;;
41653;SDS011;68687;52.030;7.110;2023-09-19T04:36:35;21.17;;;7.63;;
41653;SDS011;68687;52.030;7.110;2023-09-19T04:39:01;21.38;;;7.93;;
41653;SDS011;68687;52.030;7.110;2023-09-19T04:41:33;18.90;;;8.25;;
41653;SDS011;68687;52.030;7.110;2023-09-19T04:43:59;21.30;;;7.72;;
41653;SDS011;68687;52.030;7.110;2023-09-19T04:46:27;23.85;;;8.75;;
41653;SDS011;68687;52.030;7.110;2023-09-19T04:48:52;17.48;;;7.15;;
41653;SDS011;68687;52.030;7.110;2023-09-19T04:51:18;23.42;;;6.90;;
41653;SDS011;68687;52.030;7.110;2023-09-19T04:53:45;19.25;;;7.75;;
41653;SDS011;68687;52.030;7.110;2023-09-19T04:56:10;18.60;;;8.02;;
41653;SDS011;68687;52.030;7.110;2023-09-19T04:58:36;20.98;;;7.90;;
41653;SDS011;68687;52.030;7.110;2023-09-19T05:01:01;16.73;;;6.63;;
41653;SDS011;68687;52.030;7.110;2023-09-19T05:03:36;17.20;;;6.53;;
41653;SDS011;68687;52.030;7.110;2023-09-19T05:06:02;15.70;;;7.00;;
41653;SDS011;68687;52.030;7.110;2023-09-19T05:08:27;17.38;;;6.53;;
41653;SDS011;68687;52.030;7.110;2023-09-19T05:10:52;15.82;;;6.35;;
41653;SDS011;68687;52.030;7.110;2023-09-19T05:13:21;13.40;;;6.55;;
41653;SDS011;68687;52.030;7.110;2023-09-19T05:15:48;16.77;;;6.97;;
41653;SDS011;68687;52.030;7.110;2023-09-19T05:18:15;16.40;;;7.57;;
41653;SDS011;68687;52.030;7.110;2023-09-19T05:20:40;15.63;;;6.72;;
41653;SDS011;68687;52.030;7.110;2023-09-19T05:23:06;17.88;;;6.95;;
41653;SDS011;68687;52.030;7.110;2023-09-19T05:25:36;13.73;;;6.43;;
41653;SDS011;68687;52.030;7.110;2023-09-19T05:28:02;17.65;;;6.75;;
41653;SDS011;68687;52.030;7.110;2023-09-19T05:30:28;22.08;;;6.30;;
41653;SDS011;68687;52.030;7.110;2023-09-19T05:32:54;19.15;;;6.35;;
41653;SDS011;68687;52.030;7.110;2023-09-19T05:35:24;12.98;;;5.85;;
41653;SDS011;68687;52.030;7.110;2023-09-19T05:37:50;13.98;;;5.85;;
41653;SDS011;68687;52.030;7.110;2023-09-19T05:40:17;16.38;;;5.80;;
41653;SDS011;68687;52.030;7.110;2023-09-19T05:42:42;14.88;;;5.10;;
41653;SDS011;68687;52.030;7.110;2023-09-19T05:45:09;13.82;;;4.65;;
41653;SDS011;68687;52.030;7.110;2023-09-19T05:47:37;13.63;;;5.07;;
41653;SDS011;68687;52.030;7.110;2023-09-19T05:50:03;20.55;;;6.57;;
41653;SDS011;68687;52.030;7.110;2023-09-19T05:52:30;10.55;;;5.75;;
41653;SDS011;68687;52.030;7.110;2023-09-19T05:54:58;12.77;;;5.78;;
41653;SDS011;68687;52.030;7.110;2023-09-19T05:57:23;12.25;;;5.57;;
41653;SDS011;68687;52.030;7.110;2023-09-19T05:59:49;16.88;;;6.75;;
41653;SDS011;68687;52.030;7.110;2023-09-19T06:02:15;17.52;;;5.43;;
41653;SDS011;68687;52.030;7.110;2023-09-19T06:04:40;18.15;;;5.80;;
41653;SDS011;68687;52.030;7.110;2023-09-19T06:07:06;19.15;;;6.10;;
41653;SDS011;68687;52.030;7.110;2023-09-19T06:09:31;14.93;;;5.47;;
41653;SDS011;68687;52.030;7.110;2023-09-19T06:11:57;18.45;;;5.43;;
41653;SDS011;68687;52.030;7.110;2023-09-19T06:14:23;16.48;;;5.43;;
41653;SDS011;68687;52.030;7.110;2023-09-19T06:16:49;15.50;;;4.85;;
41653;SDS011;68687;52.030;7.110;2023-09-19T06:19:15;15.40;;;5.20;;
41653;SDS011;68687;52.030;7.110;2023-09-19T06:21:50;13.77;;;5.60;;
41653;SDS011;68687;52.030;7.110;2023-09-19T06:24:15;13.70;;;5.60;;
41653;SDS011;68687;52.030;7.110;2023-09-19T06:26:40;19.13;;;5.80;;
41653;SDS011;68687;52.030;7.110;2023-09-19T06:29:06;15.52;;;5.68;;
41653;SDS011;68687;52.030;7.110;2023-09-19T06:31:32;15.65;;;6.18;;
41653;SDS011;68687;52.030;7.110;2023-09-19T06:33:58;20.10;;;5.88;;
41653;SDS011;68687;52.030;7.110;2023-09-19T06:36:23;15.85;;;5.93;;
41653;SDS011;68687;52.030;7.110;2023-09-19T06:38:49;15.38;;;5.05;;
41653;SDS011;68687;52.030;7.110;2023-09-19T06:41:16;14.80;;;5.40;;
41653;SDS011;68687;52.030;7.110;2023-09-19T06:43:45;11.93;;;4.93;;
41653;SDS011;68687;52.030;7.110;2023-09-19T06:46:11;17.73;;;5.63;;
41653;SDS011;68687;52.030;7.110;2023-09-19T06:48:40;33.53;;;5.60;;
41653;SDS011;68687;52.030;7.110;2023-09-19T06:51:06;17.05;;;4.65;;
41653;SDS011;68687;52.030;7.110;2023-09-19T06:53:32;11.90;;;5.50;;
41653;SDS011;68687;52.030;7.110;2023-09-19T06:55:59;14.90;;;5.30;;
41653;SDS011;68687;52.030;7.110;2023-09-19T06:58:25;17.40;;;5.88;;
41653;SDS011;68687;52.030;7.110;2023-09-19T07:00:50;15.52;;;5.28;;
41653;SDS011;68687;52.030;7.110;2023-09-19T07:03:16;24.95;;;6.20;;
41653;SDS011;68687;52.030;7.110;2023-09-19T07:05:48;11.88;;;4.80;;
41653;SDS011;68687;52.030;7.110;2023-09-19T07:08:13;11.80;;;4.82;;
41653;SDS011;68687;52.030;7.110;2023-09-19T07:10:40;13.85;;;4.85;;
41653;SDS011;68687;52.030;7.110;2023-09-19T07:13:13;19.88;;;4.95;;
41653;SDS011;68687;52.030;7.110;2023-09-19T07:15:41;16.25;;;5.25;;
41653;SDS011;68687;52.030;7.110;2023-09-19T07:18:11;17.30;;;5.25;;
41653;SDS011;68687;52.030;7.110;2023-09-19T07:20:37;12.68;;;4.50;;
41653;SDS011;68687;52.030;7.110;2023-09-19T07:23:03;13.32;;;4.68;;
41653;SDS011;68687;52.030;7.110;2023-09-19T07:25:32;18.05;;;5.32;;
41653;SDS011;68687;52.030;7.110;2023-09-19T07:27:57;14.65;;;5.55;;
41653;SDS011;68687;52.030;7.110;2023-09-19T07:30:25;14.30;;;5.50;;
41653;SDS011;68687;52.030;7.110;2023-09-19T07:32:51;11.32;;;5.28;;
41653;SDS011;68687;52.030;7.110;2023-09-19T07:35:17;14.68;;;6.05;;
41653;SDS011;68687;52.030;7.110;2023-09-19T07:37:44;16.70;;;5.40;;
41653;SDS011;68687;52.030;7.110;2023-09-19T07:40:14;18.40;;;5.50;;
41653;SDS011;68687;52.030;7.110;2023-09-19T07:42:39;14.13;;;6.50;;
41653;SDS011;68687;52.030;7.110;2023-09-19T07:45:06;18.83;;;6.35;;
41653;SDS011;68687;52.030;7.110;2023-09-19T07:47:32;18.73;;;6.20;;
41653;SDS011;68687;52.030;7.110;2023-09-19T07:49:58;18.02;;;6.18;;
41653;SDS011;68687;52.030;7.110;2023-09-19T07:52:24;11.35;;;5.43;;
41653;SDS011;68687;52.030;7.110;2023-09-19T07:54:59;14.30;;;5.80;;
41653;SDS011;68687;52.030;7.110;2023-09-19T08:00:25;17.23;;;6.05;;
41653;SDS011;68687;52.030;7.110;2023-09-19T08:03:00;15.63;;;6.00;;
41653;SDS011;68687;52.030;7.110;2023-09-19T08:05:32;20.35;;;6.70;;
41653;SDS011;68687;52.030;7.110;2023-09-19T08:07:58;19.63;;;6.40;;
41653;SDS011;68687;52.030;7.110;2023-09-19T08:10:24;14.77;;;6.60;;
41653;SDS011;68687;52.030;7.110;2023-09-19T08:12:52;21.58;;;5.72;;
41653;SDS011;68687;52.030;7.110;2023-09-19T08:15:23;22.52;;;6.43;;
41653;SDS011;68687;52.030;7.110;2023-09-19T08:17:48;19.67;;;6.18;;
41653;SDS011;68687;52.030;7.110;2023-09-19T08:20:14;19.42;;;6.05;;
41653;SDS011;68687;52.030;7.110;2023-09-19T08:22:48;20.25;;;6.50;;
41653;SDS011;68687;52.030;7.110;2023-09-19T08:25:22;14.43;;;5.32;;
41653;SDS011;68687;52.030;7.110;2023-09-19T08:27:50;16.67;;;6.32;;
41653;SDS011;68687;52.030;7.110;2023-09-19T08:30:19;23.23;;;6.18;;
41653;SDS011;68687;52.030;7.110;2023-09-19T08:32:49;14.32;;;6.18;;
41653;SDS011;68687;52.030;7.110;2023-09-19T08:35:24;20.13;;;6.15;;
41653;SDS011;68687;52.030;7.110;2023-09-19T08:37:49;16.02;;;6.07;;
41653;SDS011;68687;52.030;7.110;2023-09-19T08:40:15;16.98;;;5.82;;
41653;SDS011;68687;52.030;7.110;2023-09-19T08:42:52;15.35;;;6.47;;
41653;SDS011;68687;52.030;7.110;2023-09-19T08:45:20;20.58;;;6.07;;
41653;SDS011;68687;52.030;7.110;2023-09-19T08:53:43;11.48;;;6.10;;
41653;SDS011;68687;52.030;7.110;2023-09-19T08:56:17;18.73;;;6.88;;
41653;SDS011;68687;52.030;7.110;2023-09-19T09:01:20;12.70;;;5.97;;
41653;SDS011;68687;52.030;7.110;2023-09-19T09:03:55;17.27;;;6.25;;
41653;SDS011;68687;52.030;7.110;2023-09-19T09:06:21;13.07;;;5.70;;
41653;SDS011;68687;52.030;7.110;2023-09-19T09:08:51;13.38;;;6.30;;
41653;SDS011;68687;52.030;7.110;2023-09-19T09:11:17;27.60;;;6.45;;
41653;SDS011;68687;52.030;7.110;2023-09-19T09:13:46;12.02;;;5.93;;
41653;SDS011;68687;52.030;7.110;2023-09-19T09:16:13;15.40;;;6.85;;
41653;SDS011;68687;52.030;7.110;2023-09-19T09:18:48;19.30;;;6.13;;
41653;SDS011;68687;52.030;7.110;2023-09-19T09:21:25;15.65;;;6.13;;
41653;SDS011;68687;52.030;7.110;2023-09-19T09:23:51;15.27;;;5.85;;
41653;SDS011;68687;52.030;7.110;2023-09-19T09:26:17;21.65;;;6.00;;
41653;SDS011;68687;52.030;7.110;2023-09-19T09:29:05;20.05;;;6.03;;
41653;SDS011;68687;52.030;7.110;2023-09-19T09:31:30;22.42;;;6.60;;
41653;SDS011;68687;52.030;7.110;2023-09-19T09:33:56;19.27;;;6.93;;
41653;SDS011;68687;52.030;7.110;2023-09-19T09:36:33;18.98;;;6.03;;
41653;SDS011;68687;52.030;7.110;2023-09-19T09:39:05;18.23;;;6.13;;
41653;SDS011;68687;52.030;7.110;2023-09-19T09:41:44;15.75;;;6.00;;
41653;SDS011;68687;52.030;7.110;2023-09-19T09:44:14;25.02;;;6.25;;
41653;SDS011;68687;52.030;7.110;2023-09-19T09:46:43;15.57;;;5.68;;
41653;SDS011;68687;52.030;7.110;2023-09-19T09:49:15;19.95;;;6.05;;
41653;SDS011;68687;52.030;7.110;2023-09-19T09:52:03;18.45;;;6.88;;
41653;SDS011;68687;52.030;7.110;2023-09-19T09:54:34;21.90;;;5.90;;
41653;SDS011;68687;52.030;7.110;2023-09-19T09:57:06;15.50;;;6.20;;
41653;SDS011;68687;52.030;7.110;2023-09-19T09:59:53;13.65;;;7.22;;
41653;SDS011;68687;52.030;7.110;2023-09-19T10:02:21;15.85;;;6.30;;
41653;SDS011;68687;52.030;7.110;2023-09-19T10:04:53;22.15;;;6.90;;
41653;SDS011;68687;52.030;7.110;2023-09-19T10:07:35;24.23;;;7.47;;
41653;SDS011;68687;52.030;7.110;2023-09-19T10:10:06;20.90;;;8.30;;
41653;SDS011;68687;52.030;7.110;2023-09-19T10:12:59;20.52;;;7.03;;
41653;SDS011;68687;52.030;7.110;2023-09-19T10:15:28;22.95;;;8.60;;
41653;SDS011;68687;52.030;7.110;2023-09-19T10:17:57;17.83;;;6.65;;
41653;SDS011;68687;52.030;7.110;2023-09-19T10:20:26;21.00;;;7.80;;
41653;SDS011;68687;52.030;7.110;2023-09-19T10:23:05;18.75;;;7.30;;
41653;SDS011;68687;52.030;7.110;2023-09-19T10:25:38;13.88;;;6.93;;
41653;SDS011;68687;52.030;7.110;2023-09-19T10:28:05;13.70;;;7.47;;
41653;SDS011;68687;52.030;7.110;2023-09-19T10:30:38;13.55;;;6.90;;
41653;SDS011;68687;52.030;7.110;2023-09-19T10:33:08;12.52;;;6.53;;
41653;SDS011;68687;52.030;7.110;2023-09-19T10:35:34;23.15;;;6.75;;
41653;SDS011;68687;52.030;7.110;2023-09-19T10:38:05;12.45;;;6.07;;
41653;SDS011;68687;52.030;7.110;2023-09-19T10:40:32;17.38;;;7.38;;
41653;SDS011;68687;52.030;7.110;2023-09-19T10:43:04;19.58;;;7.10;;
41653;SDS011;68687;52.030;7.110;2023-09-19T10:45:31;18.80;;;7.85;;
41653;SDS011;68687;52.030;7.110;2023-09-19T10:47:58;21.08;;;6.22;;
41653;SDS011;68687;52.030;7.110;2023-09-19T10:50:24;13.02;;;7.32;;
41653;SDS011;68687;52.030;7.110;2023-09-19T10:52:50;16.92;;;5.97;;
41653;SDS011;68687;52.030;7.110;2023-09-19T10:55:23;17.95;;;6.82;;
41653;SDS011;68687;52.030;7.110;2023-09-19T10:57:50;20.00;;;6.45;;
41653;SDS011;68687;52.030;7.110;2023-09-19T11:00:17;19.15;;;7.47;;
41653;SDS011;68687;52.030;7.110;2023-09-19T11:03:16;14.65;;;6.38;;
41653;SDS011;68687;52.030;7.110;2023-09-19T11:06:06;14.20;;;6.70;;
41653;SDS011;68687;52.030;7.110;2023-09-19T11:08:59;11.75;;;6.25;;
41653;SDS011;68687;52.030;7.110;2023-09-19T11:30:38;11.80;;;5.72;;
41653;SDS011;68687;52.030;7.110;2023-09-19T11:33:21;12.32;;;5.00;;
41653;SDS011;68687;52.030;7.110;2023-09-19T11:49:19;14.10;;;5.55;;
41653;SDS011;68687;52.030;7.110;2023-09-19T11:51:51;14.98;;;5.90;;
41653;SDS011;68687;52.030;7.110;2023-09-19T11:54:17;14.20;;;5.80;;
41653;SDS011;68687;52.030;7.110;2023-09-19T11:56:49;13.70;;;5.03;;
41653;SDS011;68687;52.030;7.110;2023-09-19T11:59:29;18.25;;;6.68;;
41653;SDS011;68687;52.030;7.110;2023-09-19T12:01:56;19.15;;;6.32;;
41653;SDS011;68687;52.030;7.110;2023-09-19T12:04:38;15.48;;;5.80;;
41653;SDS011;68687;52.030;7.110;2023-09-19T12:09:35;11.07;;;5.07;;
41653;SDS011;68687;52.030;7.110;2023-09-19T12:12:03;11.55;;;5.20;;
41653;SDS011;68687;52.030;7.110;2023-09-19T12:14:29;14.18;;;5.25;;
41653;SDS011;68687;52.030;7.110;2023-09-19T12:16:56;13.35;;;4.78;;
41653;SDS011;68687;52.030;7.110;2023-09-19T12:19:22;20.50;;;5.57;;
41653;SDS011;68687;52.030;7.110;2023-09-19T12:21:55;11.07;;;5.40;;
41653;SDS011;68687;52.030;7.110;2023-09-19T12:24:31;16.73;;;5.07;;
41653;SDS011;68687;52.030;7.110;2023-09-19T12:27:15;12.93;;;5.20;;
41653;SDS011;68687;52.030;7.110;2023-09-19T12:29:45;18.27;;;5.38;;
41653;SDS011;68687;52.030;7.110;2023-09-19T12:32:15;15.48;;;5.55;;
41653;SDS011;68687;52.030;7.110;2023-09-19T12:34:52;10.70;;;5.05;;
41653;SDS011;68687;52.030;7.110;2023-09-19T12:37:19;17.20;;;5.10;;
41653;SDS011;68687;52.030;7.110;2023-09-19T12:39:51;13.30;;;5.25;;
41653;SDS011;68687;52.030;7.110;2023-09-19T12:42:22;12.82;;;4.93;;
41653;SDS011;68687;52.030;7.110;2023-09-19T12:44:51;16.92;;;5.25;;
41653;SDS011;68687;52.030;7.110;2023-09-19T12:47:25;12.20;;;4.53;;
41653;SDS011;68687;52.030;7.110;2023-09-19T12:50:06;15.35;;;5.15;;
41653;SDS011;68687;52.030;7.110;2023-09-19T12:58:08;15.60;;;5.47;;
41653;SDS011;68687;52.030;7.110;2023-09-19T13:03:50;13.45;;;4.82;;
41653;SDS011;68687;52.030;7.110;2023-09-19T13:06:02;13.10;;;4.85;;
41653;SDS011;68687;52.030;7.110;2023-09-19T13:08:32;14.32;;;5.30;;
41653;SDS011;68687;52.030;7.110;2023-09-19T13:13:48;20.13;;;5.88;;
41653;SDS011;68687;52.030;7.110;2023-09-19T13:16:19;15.63;;;5.60;;
41653;SDS011;68687;52.030;7.110;2023-09-19T13:18:47;11.68;;;4.53;;
41653;SDS011;68687;52.030;7.110;2023-09-19T13:24:20;15.30;;;4.40;;
41653;SDS011;68687;52.030;7.110;2023-09-19T13:26:51;13.68;;;4.75;;
41653;SDS011;68687;52.030;7.110;2023-09-19T13:29:22;12.27;;;5.13;;
41653;SDS011;68687;52.030;7.110;2023-09-19T13:31:51;11.05;;;4.63;;
41653;SDS011;68687;52.030;7.110;2023-09-19T13:34:20;8.63;;;4.20;;
41653;SDS011;68687;52.030;7.110;2023-09-19T13:36:46;12.65;;;4.28;;
41653;SDS011;68687;52.030;7.110;2023-09-19T13:39:15;11.63;;;4.28;;
41653;SDS011;68687;52.030;7.110;2023-09-19T13:41:46;10.38;;;3.75;;
41653;SDS011;68687;52.030;7.110;2023-09-19T13:44:12;11.57;;;4.00;;
41653;SDS011;68687;52.030;7.110;2023-09-19T13:46:38;8.00;;;4.00;;
41653;SDS011;68687;52.030;7.110;2023-09-19T13:49:05;9.75;;;4.85;;
41653;SDS011;68687;52.030;7.110;2023-09-19T13:51:30;9.47;;;4.10;;
41653;SDS011;68687;52.030;7.110;2023-09-19T13:54:02;11.02;;;4.32;;
41653;SDS011;68687;52.030;7.110;2023-09-19T13:56:27;11.23;;;4.10;;
41653;SDS011;68687;52.030;7.110;2023-09-19T13:58:56;16.02;;;5.10;;
41653;SDS011;68687;52.030;7.110;2023-09-19T14:01:21;9.73;;;4.57;;
41653;SDS011;68687;52.030;7.110;2023-09-19T14:03:50;9.90;;;4.60;;
41653;SDS011;68687;52.030;7.110;2023-09-19T14:06:16;5.88;;;3.63;;
41653;SDS011;68687;52.030;7.110;2023-09-19T14:08:43;9.20;;;3.65;;
41653;SDS011;68687;52.030;7.110;2023-09-19T14:11:12;8.98;;;3.55;;
41653;SDS011;68687;52.030;7.110;2023-09-19T14:13:37;15.50;;;4.45;;
41653;SDS011;68687;52.030;7.110;2023-09-19T14:16:06;12.77;;;3.72;;
41653;SDS011;68687;52.030;7.110;2023-09-19T14:18:33;7.95;;;3.70;;
41653;SDS011;68687;52.030;7.110;2023-09-19T14:21:03;11.73;;;4.50;;
41653;SDS011;68687;52.030;7.110;2023-09-19T14:23:29;12.70;;;4.43;;
41653;SDS011;68687;52.030;7.110;2023-09-19T14:25:54;5.25;;;3.58;;
41653;SDS011;68687;52.030;7.110;2023-09-19T14:28:19;9.02;;;3.75;;
41653;SDS011;68687;52.030;7.110;2023-09-19T14:30:44;7.32;;;3.90;;
41653;SDS011;68687;52.030;7.110;2023-09-19T14:33:11;9.18;;;3.40;;
41653;SDS011;68687;52.030;7.110;2023-09-19T14:35:36;6.80;;;3.90;;
41653;SDS011;68687;52.030;7.110;2023-09-19T14:38:06;8.68;;;3.60;;
41653;SDS011;68687;52.030;7.110;2023-09-19T14:40:34;9.18;;;3.50;;
41653;SDS011;68687;52.030;7.110;2023-09-19T14:43:01;6.45;;;3.30;;
41653;SDS011;68687;52.030;7.110;2023-09-19T14:45:29;6.60;;;2.92;;
41653;SDS011;68687;52.030;7.110;2023-09-19T14:47:56;9.65;;;4.03;;
41653;SDS011;68687;52.030;7.110;2023-09-19T14:50:25;5.22;;;3.67;;
41653;SDS011;68687;52.030;7.110;2023-09-19T14:52:51;4.88;;;3.90;;
41653;SDS011;68687;52.030;7.110;2023-09-19T14:55:21;9.18;;;3.92;;
41653;SDS011;68687;52.030;7.110;2023-09-19T14:57:57;11.23;;;3.95;;
41653;SDS011;68687;52.030;7.110;2023-09-19T15:00:24;7.95;;;3.65;;
41653;SDS011;68687;52.030;7.110;2023-09-19T15:02:52;8.43;;;3.60;;
41653;SDS011;68687;52.030;7.110;2023-09-19T15:05:18;8.07;;;3.53;;
41653;SDS011;68687;52.030;7.110;2023-09-19T15:07:47;5.95;;;3.88;;
41653;SDS011;68687;52.030;7.110;2023-09-19T15:10:12;9.57;;;3.83;;
41653;SDS011;68687;52.030;7.110;2023-09-19T15:12:38;9.90;;;4.10;;
41653;SDS011;68687;52.030;7.110;2023-09-19T15:15:05;3.88;;;3.10;;
41653;SDS011;68687;52.030;7.110;2023-09-19T15:17:36;10.73;;;4.20;;
41653;SDS011;68687;52.030;7.110;2023-09-19T15:20:02;6.80;;;3.67;;
41653;SDS011;68687;52.030;7.110;2023-09-19T15:22:28;9.60;;;3.50;;
41653;SDS011;68687;52.030;7.110;2023-09-19T15:24:53;15.45;;;3.97;;
41653;SDS011;68687;52.030;7.110;2023-09-19T15:27:21;6.03;;;3.42;;
41653;SDS011;68687;52.030;7.110;2023-09-19T15:29:47;5.53;;;3.55;;
41653;SDS011;68687;52.030;7.110;2023-09-19T15:32:12;7.00;;;3.35;;
41653;SDS011;68687;52.030;7.110;2023-09-19T15:34:38;6.22;;;3.03;;
41653;SDS011;68687;52.030;7.110;2023-09-19T15:37:06;6.65;;;3.20;;
41653;SDS011;68687;52.030;7.110;2023-09-19T15:39:31;3.17;;;2.85;;
41653;SDS011;68687;52.030;7.110;2023-09-19T15:42:00;8.73;;;3.20;;
41653;SDS011;68687;52.030;7.110;2023-09-19T15:44:25;5.20;;;3.08;;
41653;SDS011;68687;52.030;7.110;2023-09-19T15:46:56;9.52;;;3.92;;
41653;SDS011;68687;52.030;7.110;2023-09-19T15:49:25;4.03;;;3.00;;
41653;SDS011;68687;52.030;7.110;2023-09-19T15:51:50;4.00;;;2.95;;
41653;SDS011;68687;52.030;7.110;2023-09-19T15:54:15;4.28;;;3.00;;
41653;SDS011;68687;52.030;7.110;2023-09-19T15:56:41;7.78;;;3.40;;
41653;SDS011;68687;52.030;7.110;2023-09-19T15:59:07;15.15;;;2.95;;
41653;SDS011;68687;52.030;7.110;2023-09-19T16:01:34;5.43;;;2.70;;
41653;SDS011;68687;52.030;7.110;2023-09-19T16:03:59;6.50;;;3.10;;